createdAt,value
2018-03-30T00:02:08.426Z,3.87
2018-03-30T00:04:35.982Z,3.92
2018-03-30T00:07:09.057Z,3.92
2018-03-30T00:09:48.245Z,3.80
2018-03-30T00:12:17.426Z,3.79
2018-03-30T00:14:44.952Z,3.76
2018-03-30T00:17:12.484Z,3.90
2018-03-30T00:19:40.011Z,4.00
2018-03-30T00:22:07.542Z,4.05
2018-03-30T00:24:35.111Z,3.96
2018-03-30T00:27:03.397Z,4.03
2018-03-30T00:29:30.914Z,4.04
2018-03-30T00:31:58.446Z,4.11
2018-03-30T00:34:25.981Z,4.14
2018-03-30T00:36:54.079Z,4.14
2018-03-30T00:39:22.591Z,4.08
2018-03-30T00:41:50.121Z,4.03
2018-03-30T00:44:17.789Z,4.09
2018-03-30T00:46:45.311Z,4.13
2018-03-30T00:49:12.869Z,4.14
2018-03-30T00:51:40.834Z,4.11
2018-03-30T00:54:08.356Z,4.09
2018-03-30T00:56:35.886Z,4.12
2018-03-30T00:59:03.417Z,4.04
2018-03-30T01:01:31.766Z,4.02
2018-03-30T01:04:00.141Z,3.92
2018-03-30T01:06:27.686Z,3.92
2018-03-30T01:08:55.223Z,3.90
2018-03-30T01:11:22.750Z,3.71
2018-03-30T01:13:50.274Z,3.69
2018-03-30T01:16:18.548Z,3.71
2018-03-30T01:18:47.308Z,3.62
2018-03-30T01:21:14.838Z,3.66
2018-03-30T01:23:42.860Z,3.74
2018-03-30T01:26:10.402Z,3.61
2018-03-30T01:28:38.698Z,3.41
2018-03-30T01:31:06.231Z,3.40
2018-03-30T01:33:33.758Z,3.34
2018-03-30T01:36:04.933Z,3.30
2018-03-30T01:38:32.462Z,3.27
2018-03-30T01:40:59.982Z,3.39
2018-03-30T01:43:27.639Z,3.31
2018-03-30T01:45:55.160Z,3.27
2018-03-30T01:48:22.686Z,2.99
2018-03-30T01:50:50.223Z,2.98
2018-03-30T01:53:17.753Z,2.99
2018-03-30T01:55:45.283Z,3.02
2018-03-30T01:58:12.811Z,3.10
2018-03-30T02:00:40.345Z,2.99
2018-03-30T02:03:07.863Z,2.95
2018-03-30T02:05:35.389Z,2.91
2018-03-30T02:08:02.908Z,2.88
2018-03-30T02:10:30.438Z,2.92
2018-03-30T02:12:57.965Z,3.01
2018-03-30T02:15:25.485Z,3.00
2018-03-30T02:17:53.010Z,2.72
2018-03-30T02:20:20.537Z,2.66
2018-03-30T02:22:48.096Z,2.74
2018-03-30T02:25:15.698Z,2.80
2018-03-30T02:27:43.443Z,2.87
2018-03-30T02:30:11.225Z,2.69
2018-03-30T02:32:38.920Z,2.84
2018-03-30T02:35:06.474Z,2.87
2018-03-30T02:37:34.067Z,2.87
2018-03-30T02:40:01.702Z,2.80
2018-03-30T02:42:29.227Z,2.78
2018-03-30T02:44:56.775Z,2.80
2018-03-30T02:47:24.351Z,2.70
2018-03-30T02:49:51.922Z,2.74
2018-03-30T02:52:19.527Z,2.71
2018-03-30T02:54:48.053Z,2.60
2018-03-30T02:57:15.682Z,2.56
2018-03-30T02:59:43.339Z,2.59
2018-03-30T03:02:11.097Z,2.52
2018-03-30T03:04:39.352Z,2.48
2018-03-30T03:07:07.151Z,2.48
2018-03-30T03:09:34.771Z,2.53
2018-03-30T03:12:03.166Z,2.46
2018-03-30T03:14:31.129Z,2.40
2018-03-30T03:16:58.834Z,2.31
2018-03-30T03:19:27.029Z,2.37
2018-03-30T03:21:54.661Z,2.28
2018-03-30T03:24:23.174Z,2.30
2018-03-30T03:26:52.269Z,2.34
2018-03-30T03:29:20.790Z,2.32
2018-03-30T03:31:48.364Z,2.25
2018-03-30T03:34:15.929Z,2.26
2018-03-30T03:36:44.490Z,2.18
2018-03-30T03:39:12.080Z,2.19
2018-03-30T03:41:39.748Z,2.07
2018-03-30T03:44:08.417Z,2.04
2018-03-30T03:46:36.056Z,2.07
2018-03-30T03:49:04.508Z,2.07
2018-03-30T03:51:32.080Z,1.98
2018-03-30T03:53:59.737Z,1.94
2018-03-30T03:56:27.976Z,1.91
2018-03-30T03:58:55.626Z,1.94
2018-03-30T04:01:23.316Z,1.93
2018-03-30T04:03:51.028Z,1.87
2018-03-30T04:06:18.713Z,1.92
2018-03-30T04:08:47.345Z,1.94
2018-03-30T04:11:15.026Z,1.97
2018-03-30T04:13:42.657Z,1.94
2018-03-30T04:16:10.221Z,1.94
2018-03-30T04:18:37.834Z,1.92
2018-03-30T04:21:05.415Z,1.95
2018-03-30T04:23:32.958Z,1.93
2018-03-30T04:26:01.425Z,1.90
2018-03-30T04:28:28.952Z,1.91
2018-03-30T04:30:57.214Z,1.90
2018-03-30T04:33:25.798Z,1.88
2018-03-30T04:35:53.793Z,1.82
2018-03-30T04:38:21.329Z,1.84
2018-03-30T04:40:48.858Z,1.80
2018-03-30T04:43:16.378Z,1.77
2018-03-30T04:45:43.901Z,1.82
2018-03-30T04:48:11.438Z,1.78
2018-03-30T04:50:38.970Z,1.82
2018-03-30T04:53:06.498Z,1.86
2018-03-30T04:55:34.025Z,1.89
2018-03-30T04:58:01.552Z,1.92
2018-03-30T05:00:29.085Z,1.94
2018-03-30T05:02:56.613Z,1.93
2018-03-30T05:05:25.023Z,2.02
2018-03-30T05:07:52.617Z,2.06
2018-03-30T05:10:20.103Z,2.08
2018-03-30T05:12:47.624Z,2.09
2018-03-30T05:15:15.160Z,2.09
2018-03-30T05:17:42.682Z,2.04
2018-03-30T05:20:10.206Z,2.17
2018-03-30T05:22:37.725Z,2.14
2018-03-30T05:25:05.250Z,2.17
2018-03-30T05:27:32.885Z,2.20
2018-03-30T05:30:00.428Z,2.35
2018-03-30T06:54:24.926Z,7.16
2018-03-30T06:56:52.462Z,6.95
2018-03-30T06:59:19.999Z,6.99
2018-03-30T07:01:47.544Z,7.15
2018-03-30T07:04:15.074Z,7.46
2018-03-30T07:06:42.619Z,7.61
2018-03-30T07:09:10.179Z,7.82
2018-03-30T07:11:38.659Z,6.86
2018-03-30T07:14:06.196Z,6.92
2018-03-30T07:16:33.768Z,6.58
2018-03-30T07:19:01.318Z,7.08
2018-03-30T07:21:28.840Z,7.25
2018-03-30T07:23:56.365Z,6.69
2018-03-30T07:26:23.893Z,7.16
2018-03-30T07:28:52.256Z,7.16
2018-03-30T07:31:19.793Z,7.49
2018-03-30T07:33:47.331Z,8.08
2018-03-30T07:36:15.811Z,7.69
2018-03-30T07:38:43.333Z,7.51
2018-03-30T07:41:10.857Z,8.56
2018-03-30T07:43:39.128Z,8.13
2018-03-30T07:46:06.658Z,8.56
2018-03-30T07:48:34.185Z,7.18
2018-03-30T07:51:01.710Z,7.02
2018-03-30T07:53:29.236Z,6.92
2018-03-30T07:55:56.766Z,7.29
2018-03-30T07:58:24.296Z,7.42
2018-03-30T08:00:52.430Z,7.23
2018-03-30T08:03:20.193Z,7.94
2018-03-30T08:05:48.681Z,8.13
2018-03-30T08:08:16.850Z,8.43
2018-03-30T08:10:44.370Z,8.43
2018-03-30T08:13:12.518Z,8.78
2018-03-30T08:15:40.739Z,9.59
2018-03-30T08:18:08.335Z,9.21
2018-03-30T08:20:35.840Z,9.85
2018-03-30T08:23:04.294Z,9.50
2018-03-30T08:25:31.841Z,9.54
2018-03-30T08:27:59.373Z,8.87
2018-03-30T08:30:26.912Z,9.36
2018-03-30T08:32:55.016Z,10.19
2018-03-30T08:35:22.535Z,9.92
2018-03-30T08:37:50.062Z,10.47
2018-03-30T08:40:18.201Z,10.33
2018-03-30T08:42:45.714Z,9.78
2018-03-30T08:45:13.264Z,10.25
2018-03-30T08:47:41.136Z,9.55
2018-03-30T08:50:08.657Z,9.67
2018-03-30T08:52:39.045Z,8.69
2018-03-30T08:55:07.139Z,8.65
2018-03-30T08:57:34.670Z,9.56
2018-03-30T09:00:02.587Z,8.48
2018-03-30T09:02:30.133Z,9.37
2018-03-30T09:04:57.729Z,9.28
2018-03-30T09:07:25.275Z,8.59
2018-03-30T09:09:52.812Z,8.93
2018-03-30T09:12:20.436Z,8.31
2018-03-30T09:14:47.958Z,8.79
2018-03-30T09:17:15.574Z,7.98
2018-03-30T09:19:43.092Z,7.81
2018-03-30T09:22:10.686Z,8.07
2018-03-30T09:24:38.208Z,8.47
2018-03-30T09:27:05.856Z,8.13
2018-03-30T09:29:33.357Z,8.08
2018-03-30T09:32:00.916Z,8.07
2018-03-30T09:34:28.468Z,7.66
2018-03-30T09:36:56.114Z,7.98
2018-03-30T09:39:23.645Z,7.93
2018-03-30T09:41:51.161Z,7.65
2018-03-30T09:44:18.684Z,8.02
2018-03-30T09:46:46.209Z,8.14
2018-03-30T09:49:13.720Z,7.92
2018-03-30T09:51:41.286Z,7.57
2018-03-30T09:54:08.825Z,7.89
2018-03-30T09:56:36.344Z,8.05
2018-03-30T09:59:03.880Z,8.80
2018-03-30T10:01:31.406Z,8.75
2018-03-30T10:03:58.945Z,9.86
2018-03-30T10:06:26.492Z,10.45
2018-03-30T10:08:54.034Z,11.17
2018-03-30T10:11:21.676Z,10.51
2018-03-30T10:13:49.205Z,10.87
2018-03-30T10:16:16.808Z,11.87
2018-03-30T10:18:44.480Z,12.58
2018-03-30T10:21:12.126Z,13.10
2018-03-30T10:23:39.654Z,14.42
2018-03-30T10:26:07.253Z,15.27
2018-03-30T10:28:34.774Z,16.46
2018-03-30T10:31:02.293Z,15.65
2018-03-30T10:33:29.820Z,15.46
2018-03-30T10:35:57.352Z,16.51
2018-03-30T10:38:24.871Z,16.83
2018-03-30T10:40:52.396Z,16.85
2018-03-30T10:43:19.965Z,14.71
2018-03-30T10:45:47.489Z,15.88
2018-03-30T10:48:15.075Z,16.42
2018-03-30T10:50:43.478Z,15.78
2018-03-30T10:53:11.019Z,16.21
2018-03-30T10:55:38.582Z,15.74
2018-03-30T10:58:06.135Z,13.30
2018-03-30T11:00:33.680Z,13.12
2018-03-30T11:03:01.222Z,13.52
2018-03-30T11:05:28.816Z,13.44
2018-03-30T11:07:56.379Z,12.44
2018-03-30T11:10:23.993Z,12.28
2018-03-30T11:12:51.544Z,12.19
2018-03-30T11:15:19.070Z,10.90
2018-03-30T11:17:46.926Z,10.98
2018-03-30T11:20:14.484Z,11.05
2018-03-30T11:22:42.067Z,11.29
2018-03-30T11:25:09.568Z,11.23
2018-03-30T11:27:37.104Z,10.89
2018-03-30T11:30:04.633Z,10.12
2018-03-30T11:32:32.154Z,9.68
2018-03-30T11:34:59.683Z,10.63
2018-03-30T11:37:27.225Z,10.51
2018-03-30T11:39:54.759Z,10.18
2018-03-30T11:42:22.289Z,10.12
2018-03-30T11:44:49.824Z,10.70
2018-03-30T11:47:17.407Z,10.31
2018-03-30T11:49:44.934Z,10.41
2018-03-30T11:52:12.497Z,10.38
2018-03-30T11:54:40.068Z,10.12
2018-03-30T11:57:07.615Z,10.26
2018-03-30T11:59:35.143Z,9.80
2018-03-30T12:02:02.660Z,9.58
2018-03-30T12:04:30.265Z,9.98
2018-03-30T12:06:57.791Z,10.28
2018-03-30T12:09:25.314Z,9.73
2018-03-30T12:11:52.834Z,10.39
2018-03-30T12:14:20.362Z,10.58
2018-03-30T12:16:47.954Z,10.28
2018-03-30T12:19:15.516Z,10.38
2018-03-30T12:21:43.081Z,10.29
2018-03-30T12:24:10.605Z,10.39
2018-03-30T12:26:38.132Z,9.81
2018-03-30T12:29:05.684Z,10.09
2018-03-30T12:31:33.316Z,10.44
2018-03-30T12:34:00.845Z,10.12
2018-03-30T12:36:28.385Z,10.53
2018-03-30T12:38:55.926Z,10.83
2018-03-30T12:41:23.454Z,10.28
2018-03-30T12:43:50.982Z,10.44
2018-03-30T12:46:18.626Z,10.17
2018-03-30T12:48:46.139Z,10.10
2018-03-30T12:51:13.663Z,10.10
2018-03-30T12:53:41.204Z,10.12
2018-03-30T12:56:08.741Z,10.26
2018-03-30T12:58:36.270Z,10.33
2018-03-30T13:01:03.785Z,10.34
2018-03-30T13:03:31.333Z,10.60
2018-03-30T13:05:58.898Z,10.63
2018-03-30T13:08:26.509Z,10.69
2018-03-30T13:10:54.026Z,10.47
2018-03-30T13:13:21.560Z,10.59
2018-03-30T13:15:49.091Z,10.68
2018-03-30T13:18:16.749Z,10.59
2018-03-30T13:20:44.282Z,10.60
2018-03-30T13:23:11.869Z,10.86
2018-03-30T13:25:39.398Z,10.76
2018-03-30T13:28:06.930Z,11.10
2018-03-30T13:30:34.457Z,10.91
2018-03-30T13:33:01.986Z,10.85
2018-03-30T13:35:29.521Z,10.95
2018-03-30T13:37:57.132Z,10.87
2018-03-30T13:40:24.654Z,10.81
2018-03-30T13:42:52.174Z,10.83
2018-03-30T13:45:19.712Z,11.20
2018-03-30T13:47:47.250Z,10.85
2018-03-30T13:50:14.782Z,10.92
2018-03-30T13:52:44.127Z,10.74
2018-03-30T13:55:11.650Z,10.97
2018-03-30T13:57:40.023Z,11.14
2018-03-30T14:03:04.944Z,11.02
2018-03-30T14:08:33.573Z,11.10
2018-03-30T14:11:02.859Z,11.12
2018-03-30T14:13:30.378Z,11.23
2018-03-30T14:16:08.259Z,11.18
2018-03-30T14:18:36.737Z,11.28
2018-03-30T14:21:05.078Z,11.39
2018-03-30T14:23:33.680Z,11.27
2018-03-30T14:26:15.089Z,11.19
2018-03-30T14:28:44.482Z,11.27
2018-03-30T14:31:17.625Z,11.22
2018-03-30T14:33:46.653Z,11.32
2018-03-30T14:36:32.917Z,11.18
2018-03-30T14:39:12.038Z,11.14
2018-03-30T14:41:39.605Z,11.25
2018-03-30T14:44:11.810Z,11.17
2018-03-30T14:46:50.102Z,11.30
2018-03-30T14:49:18.517Z,11.33
2018-03-30T14:54:50.234Z,11.46
2018-03-30T14:57:20.549Z,11.57
2018-03-30T14:59:51.147Z,11.39
2018-03-30T15:02:30.253Z,11.41
2018-03-30T15:04:58.585Z,11.27
2018-03-30T15:07:29.675Z,11.30
2018-03-30T15:10:05.865Z,11.47
2018-03-30T15:15:48.590Z,11.27
2018-03-30T15:18:18.931Z,11.19
2018-03-30T15:23:48.521Z,11.14
2018-03-30T15:29:18.565Z,11.27
2018-03-30T15:32:07.655Z,11.19
2018-03-30T15:34:50.633Z,11.19
2018-03-30T15:37:18.245Z,11.12
2018-03-30T15:40:06.249Z,11.15
2018-03-30T15:42:48.662Z,11.12
2018-03-30T15:45:17.071Z,11.12
2018-03-30T15:47:44.605Z,11.07
2018-03-30T15:50:12.126Z,11.08
2018-03-30T15:52:39.663Z,11.08
2018-03-30T15:55:07.203Z,11.00
2018-03-30T15:57:34.802Z,11.00
2018-03-30T16:00:02.347Z,11.00
2018-03-30T16:02:29.989Z,10.84
2018-03-30T16:04:57.522Z,10.83
2018-03-30T16:07:25.040Z,10.83
2018-03-30T16:09:53.588Z,10.85
2018-03-30T16:12:21.970Z,10.82
2018-03-30T16:14:49.503Z,10.73
2018-03-30T16:17:17.024Z,10.73
2018-03-30T16:19:44.022Z,10.63
2018-03-30T16:22:11.023Z,10.64
2018-03-30T16:24:38.127Z,10.61
2018-03-30T16:27:05.181Z,10.54
2018-03-30T16:29:32.188Z,10.52
2018-03-30T16:31:59.175Z,10.46
2018-03-30T16:34:26.227Z,10.44
2018-03-30T16:36:53.246Z,10.44
2018-03-30T16:39:20.317Z,10.33
2018-03-30T16:41:47.300Z,10.27
2018-03-30T16:44:14.291Z,10.14
2018-03-30T16:46:41.294Z,10.10
2018-03-30T16:49:08.420Z,10.06
2018-03-30T16:51:35.409Z,10.04
2018-03-30T16:54:02.502Z,9.96
2018-03-30T16:56:29.486Z,9.92
2018-03-30T16:58:56.597Z,9.82
2018-03-30T17:01:23.574Z,9.76
2018-03-30T17:03:50.592Z,9.73
2018-03-30T17:06:17.577Z,9.69
2018-03-30T17:08:44.674Z,9.63
2018-03-30T17:11:11.669Z,9.61
2018-03-30T17:13:38.665Z,9.54
2018-03-30T17:16:05.688Z,9.45
2018-03-30T17:18:32.713Z,9.41
2018-03-30T17:20:59.697Z,9.33
2018-03-30T17:23:26.705Z,9.30
2018-03-30T17:25:53.680Z,9.26
2018-03-30T17:28:20.699Z,9.22
2018-03-30T17:30:47.717Z,9.15
2018-03-30T17:33:14.725Z,9.13
2018-03-30T17:35:41.710Z,9.06
2018-03-30T17:38:08.725Z,8.99
2018-03-30T17:40:35.722Z,8.96
2018-03-30T17:43:02.726Z,8.93
2018-03-30T17:45:30.690Z,8.88
2018-03-30T17:47:57.693Z,8.84
2018-03-30T17:50:24.713Z,8.80
2018-03-30T17:52:51.703Z,8.76
2018-03-30T17:55:18.808Z,8.73
2018-03-30T17:57:45.790Z,8.68
2018-03-30T18:00:12.835Z,8.61
2018-03-30T18:02:40.445Z,8.63
2018-03-30T18:05:07.517Z,8.60
2018-03-30T18:07:34.506Z,8.59
2018-03-30T18:10:01.612Z,8.51
2018-03-30T18:12:28.657Z,8.54
2018-03-30T18:14:55.653Z,8.48
2018-03-30T18:17:22.756Z,8.45
2018-03-30T18:19:49.734Z,8.45
2018-03-30T18:22:16.854Z,8.39
2018-03-30T18:24:43.935Z,8.35
2018-03-30T18:27:10.945Z,8.33
2018-03-30T18:29:37.923Z,8.30
2018-03-30T18:32:04.909Z,8.26
2018-03-30T18:34:31.987Z,8.23
2018-03-30T18:36:59.038Z,8.20
2018-03-30T18:39:26.050Z,8.13
2018-03-30T18:41:53.052Z,8.09
2018-03-30T18:44:20.045Z,8.06
2018-03-30T18:46:47.040Z,8.02
2018-03-30T18:49:14.036Z,8.00
2018-03-30T18:51:41.037Z,7.93
2018-03-30T18:54:08.060Z,7.88
2018-03-30T18:56:35.037Z,7.86
2018-03-30T18:59:02.021Z,7.83
2018-03-30T19:01:29.021Z,7.78
2018-03-30T19:03:56.014Z,7.74
2018-03-30T19:06:23.014Z,7.72
2018-03-30T19:08:50.037Z,7.65
2018-03-30T19:11:17.197Z,7.62
2018-03-30T19:13:44.192Z,7.59
2018-03-30T19:16:11.205Z,7.55
2018-03-30T19:18:38.202Z,7.55
2018-03-30T19:21:05.211Z,7.48
2018-03-30T19:23:32.193Z,7.44
2018-03-30T19:25:59.193Z,7.42
2018-03-30T19:28:26.218Z,7.39
2018-03-30T19:30:53.268Z,7.35
2018-03-30T19:33:20.252Z,7.33
2018-03-30T19:35:47.234Z,7.28
2018-03-30T19:38:14.240Z,7.27
2018-03-30T19:40:41.237Z,7.19
2018-03-30T19:43:08.222Z,7.18
2018-03-30T19:45:35.250Z,7.16
2018-03-30T19:48:02.227Z,7.12
2018-03-30T19:50:29.208Z,7.10
2018-03-30T19:52:56.209Z,7.08
2018-03-30T19:55:23.197Z,7.03
2018-03-30T19:57:50.205Z,7.01
2018-03-30T20:00:17.224Z,7.01
2018-03-30T20:02:44.203Z,6.94
2018-03-30T20:05:11.218Z,6.91
2018-03-30T20:07:39.054Z,6.91
2018-03-30T20:10:06.121Z,6.87
2018-03-30T20:12:33.256Z,6.80
2018-03-30T20:15:00.335Z,6.79
2018-03-30T20:17:27.328Z,6.78
2018-03-30T20:19:54.334Z,6.74
2018-03-30T20:22:21.349Z,6.72
2018-03-30T20:24:48.345Z,6.70
2018-03-30T20:27:15.339Z,6.71
2018-03-30T20:29:42.343Z,6.66
2018-03-30T20:32:09.359Z,6.61
2018-03-30T20:34:36.348Z,6.59
2018-03-30T20:37:03.388Z,6.53
2018-03-30T20:39:30.539Z,6.51
2018-03-30T20:41:57.552Z,6.43
2018-03-30T20:44:24.533Z,6.45
2018-03-30T20:46:51.517Z,6.45
2018-03-30T20:49:18.598Z,6.42
2018-03-30T20:51:45.610Z,6.41
2018-03-30T20:54:12.615Z,6.36
2018-03-30T20:56:39.635Z,6.36
2018-03-30T20:59:06.856Z,6.33
2018-03-30T21:01:33.865Z,6.35
2018-03-30T21:04:00.852Z,6.35
2018-03-30T21:06:27.866Z,6.27
2018-03-30T21:08:54.980Z,6.28
2018-03-30T21:11:21.980Z,6.24
2018-03-30T21:13:49.137Z,6.23
2018-03-30T21:16:16.241Z,6.25
2018-03-30T21:18:43.273Z,6.20
2018-03-30T21:21:10.393Z,6.17
2018-03-30T21:23:37.542Z,6.19
2018-03-30T21:26:04.553Z,6.14
2018-03-30T21:28:31.556Z,6.13
2018-03-30T21:30:58.578Z,6.13
2018-03-30T21:33:25.640Z,6.10
2018-03-30T21:35:52.683Z,6.10
2018-03-30T21:38:19.696Z,6.08
2018-03-30T21:40:46.733Z,6.10
2018-03-30T21:43:13.727Z,6.08
2018-03-30T21:45:40.806Z,6.02
2018-03-30T21:48:07.858Z,6.04
2018-03-30T21:50:34.866Z,6.01
2018-03-30T21:53:01.857Z,5.96
2018-03-30T21:55:28.856Z,5.95
2018-03-30T21:57:55.854Z,5.92
2018-03-30T22:00:22.848Z,5.89
2018-03-30T22:02:49.844Z,5.86
2018-03-30T22:05:16.834Z,5.84
2018-03-30T22:07:43.850Z,5.78
2018-03-30T22:10:10.837Z,5.76
2018-03-30T22:12:37.845Z,5.74
2018-03-30T22:15:04.829Z,5.73
2018-03-30T22:17:31.832Z,5.64
2018-03-30T22:19:58.843Z,5.61
2018-03-30T22:22:26.106Z,5.59
2018-03-30T22:24:53.162Z,5.50
2018-03-30T22:27:20.297Z,5.51
2018-03-30T22:29:47.360Z,5.48
2018-03-30T22:32:14.406Z,5.41
2018-03-30T22:34:41.438Z,5.44
2018-03-30T22:37:08.501Z,5.39
2018-03-30T22:39:35.486Z,5.39
2018-03-30T22:42:02.460Z,5.33
2018-03-30T22:44:29.487Z,5.29
2018-03-30T22:46:56.490Z,5.32
2018-03-30T22:49:23.468Z,5.24
2018-03-30T22:51:50.493Z,5.30
2018-03-30T22:54:17.494Z,5.23
2018-03-30T22:56:44.576Z,5.14
2018-03-30T22:59:11.550Z,5.13
2018-03-30T23:01:38.645Z,5.00
2018-03-30T23:04:05.632Z,4.98
2018-03-30T23:06:32.605Z,5.00
2018-03-30T23:08:59.612Z,4.92
2018-03-30T23:11:26.627Z,4.89
2018-03-30T23:13:53.628Z,4.87
2018-03-30T23:16:20.621Z,4.85
2018-03-30T23:18:47.626Z,4.82
2018-03-30T23:21:14.614Z,4.78
2018-03-30T23:23:41.696Z,4.72
2018-03-30T23:26:08.846Z,4.69
2018-03-30T23:28:35.897Z,4.64
2018-03-30T23:31:02.894Z,4.58
2018-03-30T23:33:29.888Z,4.56
2018-03-30T23:35:57.091Z,4.57
2018-03-30T23:38:24.152Z,4.53
2018-03-30T23:40:51.174Z,4.48
2018-03-30T23:43:18.149Z,4.44
2018-03-30T23:45:45.162Z,4.48
2018-03-30T23:48:12.284Z,4.44
2018-03-30T23:50:39.262Z,4.41
2018-03-30T23:53:06.273Z,4.39
2018-03-30T23:55:33.322Z,4.35
2018-03-30T23:58:00.370Z,4.37
